sensor_id;sensor_type;location;lat;lon;timestamp;pressure;altitude;pressure_sealevel;temperature;humidity
33414;BME280;60055;41.884;12.534;2023-08-01T00:00:00;100418.75;;;28.11;62.33
33414;BME280;60055;41.884;12.534;2023-08-01T00:02:26;100416.34;;;28.16;61.85
33414;BME280;60055;41.884;12.534;2023-08-01T00:04:51;100414.81;;;28.21;61.89
33414;BME280;60055;41.884;12.534;2023-08-01T00:07:17;100417.19;;;28.24;61.61
33414;BME280;60055;41.884;12.534;2023-08-01T00:09:42;100418.06;;;28.17;61.91
33414;BME280;60055;41.884;12.534;2023-08-01T00:12:08;100415.56;;;28.07;62.27
33414;BME280;60055;41.884;12.534;2023-08-01T00:14:35;100415.56;;;28.07;62.21
33414;BME280;60055;41.884;12.534;2023-08-01T00:17:01;100412.97;;;28.06;62.14
33414;BME280;60055;41.884;12.534;2023-08-01T00:19:27;100409.75;;;28.10;62.02
33414;BME280;60055;41.884;12.534;2023-08-01T00:21:53;100408.75;;;28.11;62.04
33414;BME280;60055;41.884;12.534;2023-08-01T00:24:18;100409.59;;;27.96;63.17
33414;BME280;60055;41.884;12.534;2023-08-01T00:26:43;100407.53;;;28.06;62.39
33414;BME280;60055;41.884;12.534;2023-08-01T00:29:09;100404.31;;;28.02;62.25
33414;BME280;60055;41.884;12.534;2023-08-01T00:31:34;100409.28;;;28.07;62.56
33414;BME280;60055;41.884;12.534;2023-08-01T00:34:00;100407.88;;;28.03;62.59
33414;BME280;60055;41.884;12.534;2023-08-01T00:36:25;100410.97;;;28.08;62.33
33414;BME280;60055;41.884;12.534;2023-08-01T00:38:50;100403.31;;;28.03;62.29
33414;BME280;60055;41.884;12.534;2023-08-01T00:41:16;100407.22;;;28.01;62.89
33414;BME280;60055;41.884;12.534;2023-08-01T00:43:41;100398.94;;;27.94;62.94
33414;BME280;60055;41.884;12.534;2023-08-01T00:46:08;100401.66;;;27.86;62.85
33414;BME280;60055;41.884;12.534;2023-08-01T00:48:33;100398.44;;;27.90;62.79
33414;BME280;60055;41.884;12.534;2023-08-01T00:51:05;100396.22;;;27.94;63.06
33414;BME280;60055;41.884;12.534;2023-08-01T00:53:32;100385.56;;;27.84;63.12
33414;BME280;60055;41.884;12.534;2023-08-01T00:55:58;100390.47;;;27.89;63.44
33414;BME280;60055;41.884;12.534;2023-08-01T00:58:24;100383.53;;;27.86;63.57
33414;BME280;60055;41.884;12.534;2023-08-01T01:00:50;100381.47;;;27.88;63.80
33414;BME280;60055;41.884;12.534;2023-08-01T01:03:16;100380.50;;;27.81;63.89
33414;BME280;60055;41.884;12.534;2023-08-01T01:06:09;100371.16;;;27.84;63.51
33414;BME280;60055;41.884;12.534;2023-08-01T01:08:37;100371.16;;;27.76;63.65
33414;BME280;60055;41.884;12.534;2023-08-01T01:11:02;100369.97;;;27.78;63.23
33414;BME280;60055;41.884;12.534;2023-08-01T01:13:29;100380.81;;;27.78;63.39
33414;BME280;60055;41.884;12.534;2023-08-01T01:15:55;100375.59;;;27.77;63.32
33414;BME280;60055;41.884;12.534;2023-08-01T01:18:20;100374.22;;;27.81;63.55
33414;BME280;60055;41.884;12.534;2023-08-01T01:20:45;100373.19;;;27.82;63.74
33414;BME280;60055;41.884;12.534;2023-08-01T01:23:11;100372.03;;;27.68;63.70
33414;BME280;60055;41.884;12.534;2023-08-01T01:25:37;100370.16;;;27.69;63.66
33414;BME280;60055;41.884;12.534;2023-08-01T01:28:05;100369.81;;;27.72;63.64
33414;BME280;60055;41.884;12.534;2023-08-01T01:30:32;100364.38;;;27.72;63.75
33414;BME280;60055;41.884;12.534;2023-08-01T01:33:00;100374.09;;;27.66;63.72
33414;BME280;60055;41.884;12.534;2023-08-01T01:35:26;100376.94;;;27.65;64.21
33414;BME280;60055;41.884;12.534;2023-08-01T01:37:51;100368.66;;;27.58;64.21
33414;BME280;60055;41.884;12.534;2023-08-01T01:40:17;100361.56;;;27.57;63.95
33414;BME280;60055;41.884;12.534;2023-08-01T01:42:42;100362.41;;;27.58;63.85
33414;BME280;60055;41.884;12.534;2023-08-01T01:45:08;100367.16;;;27.56;64.07
33414;BME280;60055;41.884;12.534;2023-08-01T01:47:33;100362.41;;;27.50;64.27
33414;BME280;60055;41.884;12.534;2023-08-01T01:49:59;100359.69;;;27.41;64.72
33414;BME280;60055;41.884;12.534;2023-08-01T01:52:24;100360.72;;;27.40;64.65
33414;BME280;60055;41.884;12.534;2023-08-01T01:54:49;100362.78;;;27.47;64.59
33414;BME280;60055;41.884;12.534;2023-08-01T01:57:15;100361.06;;;27.46;64.37
33414;BME280;60055;41.884;12.534;2023-08-01T01:59:40;100359.38;;;27.45;64.57
33414;BME280;60055;41.884;12.534;2023-08-01T02:02:06;100349.53;;;27.35;64.44
33414;BME280;60055;41.884;12.534;2023-08-01T02:04:31;100351.03;;;27.38;64.91
33414;BME280;60055;41.884;12.534;2023-08-01T02:06:56;100350.88;;;27.39;64.69
33414;BME280;60055;41.884;12.534;2023-08-01T02:09:22;100347.50;;;27.37;64.49
33414;BME280;60055;41.884;12.534;2023-08-01T02:11:48;100344.09;;;27.35;64.48
33414;BME280;60055;41.884;12.534;2023-08-01T02:14:14;100341.25;;;27.37;64.37
33414;BME280;60055;41.884;12.534;2023-08-01T02:16:39;100335.31;;;27.33;64.68
33414;BME280;60055;41.884;12.534;2023-08-01T02:19:05;100337.72;;;27.20;65.61
33414;BME280;60055;41.884;12.534;2023-08-01T02:21:30;100339.38;;;27.29;64.84
33414;BME280;60055;41.884;12.534;2023-08-01T02:23:56;100344.28;;;27.26;65.32
33414;BME280;60055;41.884;12.534;2023-08-01T02:26:21;100341.09;;;27.30;65.02
33414;BME280;60055;41.884;12.534;2023-08-01T02:28:48;100343.47;;;27.17;65.35
33414;BME280;60055;41.884;12.534;2023-08-01T02:31:14;100339.72;;;27.26;65.23
33414;BME280;60055;41.884;12.534;2023-08-01T02:33:40;100340.22;;;27.30;65.08
33414;BME280;60055;41.884;12.534;2023-08-01T02:36:05;100336.66;;;27.29;65.19
33414;BME280;60055;41.884;12.534;2023-08-01T02:38:30;100343.63;;;27.24;65.72
33414;BME280;60055;41.884;12.534;2023-08-01T02:40:56;100339.41;;;27.13;66.19
33414;BME280;60055;41.884;12.534;2023-08-01T02:43:21;100335.50;;;27.16;65.83
33414;BME280;60055;41.884;12.534;2023-08-01T02:45:47;100344.28;;;27.18;65.96
33414;BME280;60055;41.884;12.534;2023-08-01T02:48:12;100335.50;;;27.24;65.55
33414;BME280;60055;41.884;12.534;2023-08-01T02:50:38;100337.16;;;27.25;65.87
33414;BME280;60055;41.884;12.534;2023-08-01T02:53:04;100332.94;;;27.22;65.98
33414;BME280;60055;41.884;12.534;2023-08-01T02:55:30;100333.78;;;27.23;66.08
33414;BME280;60055;41.884;12.534;2023-08-01T02:57:56;100331.44;;;27.20;66.02
33414;BME280;60055;41.884;12.534;2023-08-01T03:00:21;100339.38;;;27.21;66.33
33414;BME280;60055;41.884;12.534;2023-08-01T03:02:47;100330.06;;;27.24;66.09
33414;BME280;60055;41.884;12.534;2023-08-01T03:05:12;100332.94;;;27.22;66.11
33414;BME280;60055;41.884;12.534;2023-08-01T03:07:37;100337.34;;;27.23;66.28
33414;BME280;60055;41.884;12.534;2023-08-01T03:10:03;100326.50;;;27.23;66.32
33414;BME280;60055;41.884;12.534;2023-08-01T03:12:29;100326.31;;;27.25;66.30
33414;BME280;60055;41.884;12.534;2023-08-01T03:14:54;100328.56;;;27.13;66.72
33414;BME280;60055;41.884;12.534;2023-08-01T03:17:20;100332.44;;;27.19;66.46
33414;BME280;60055;41.884;12.534;2023-08-01T03:19:46;100329.56;;;27.20;66.43
33414;BME280;60055;41.884;12.534;2023-08-01T03:22:11;100330.91;;;27.24;66.25
33414;BME280;60055;41.884;12.534;2023-08-01T03:24:36;100332.44;;;27.11;67.08
33414;BME280;60055;41.884;12.534;2023-08-01T03:27:02;100320.94;;;27.17;66.89
33414;BME280;60055;41.884;12.534;2023-08-01T03:29:28;100316.19;;;26.95;67.98
33414;BME280;60055;41.884;12.534;2023-08-01T03:31:54;100311.94;;;27.08;67.20
33414;BME280;60055;41.884;12.534;2023-08-01T03:34:19;100323.63;;;27.09;67.01
33414;BME280;60055;41.884;12.534;2023-08-01T03:36:45;100314.66;;;27.16;66.48
33414;BME280;60055;41.884;12.534;2023-08-01T03:39:10;100317.38;;;27.16;66.74
33414;BME280;60055;41.884;12.534;2023-08-01T03:41:36;100324.50;;;27.17;66.84
33414;BME280;60055;41.884;12.534;2023-08-01T03:44:03;100318.38;;;27.15;66.70
33414;BME280;60055;41.884;12.534;2023-08-01T03:46:28;100314.81;;;27.15;66.42
33414;BME280;60055;41.884;12.534;2023-08-01T03:48:53;100331.94;;;27.07;66.63
33414;BME280;60055;41.884;12.534;2023-08-01T03:51:19;100333.28;;;27.11;66.83
33414;BME280;60055;41.884;12.534;2023-08-01T03:53:46;100331.94;;;27.07;66.72
33414;BME280;60055;41.884;12.534;2023-08-01T03:56:11;100326.34;;;27.09;66.96
33414;BME280;60055;41.884;12.534;2023-08-01T03:58:36;100328.75;;;27.04;67.22
33414;BME280;60055;41.884;12.534;2023-08-01T04:01:02;100323.81;;;26.91;67.40
33414;BME280;60055;41.884;12.534;2023-08-01T04:03:27;100329.41;;;26.98;67.15
33414;BME280;60055;41.884;12.534;2023-08-01T04:05:53;100326.38;;;26.92;67.16
33414;BME280;60055;41.884;12.534;2023-08-01T04:08:19;100330.44;;;26.97;67.27
33414;BME280;60055;41.884;12.534;2023-08-01T04:10:44;100327.88;;;26.95;67.34
33414;BME280;60055;41.884;12.534;2023-08-01T04:13:09;100328.56;;;26.89;67.69
33414;BME280;60055;41.884;12.534;2023-08-01T04:15:35;100332.81;;;27.00;67.03
33414;BME280;60055;41.884;12.534;2023-08-01T04:18:00;100328.38;;;26.99;66.76
33414;BME280;60055;41.884;12.534;2023-08-01T04:20:26;100330.75;;;27.02;67.21
33414;BME280;60055;41.884;12.534;2023-08-01T04:22:51;100333.66;;;27.00;66.81
33414;BME280;60055;41.884;12.534;2023-08-01T04:25:16;100329.56;;;27.04;66.88
33414;BME280;60055;41.884;12.534;2023-08-01T04:27:42;100334.66;;;26.99;66.98
33414;BME280;60055;41.884;12.534;2023-08-01T04:30:08;100335.31;;;27.01;67.07
33414;BME280;60055;41.884;12.534;2023-08-01T04:32:33;100339.06;;;27.08;66.83
33414;BME280;60055;41.884;12.534;2023-08-01T04:34:58;100339.22;;;27.15;66.30
33414;BME280;60055;41.884;12.534;2023-08-01T04:37:24;100338.72;;;27.11;66.59
33414;BME280;60055;41.884;12.534;2023-08-01T04:39:50;100341.75;;;27.08;66.92
33414;BME280;60055;41.884;12.534;2023-08-01T04:42:16;100339.41;;;27.13;66.57
33414;BME280;60055;41.884;12.534;2023-08-01T04:44:41;100350.75;;;27.17;66.90
33414;BME280;60055;41.884;12.534;2023-08-01T04:47:07;100351.91;;;27.14;66.71
33414;BME280;60055;41.884;12.534;2023-08-01T04:49:32;100353.47;;;27.17;66.23
33414;BME280;60055;41.884;12.534;2023-08-01T04:51:58;100359.22;;;27.22;66.13
33414;BME280;60055;41.884;12.534;2023-08-01T04:54:23;100353.94;;;27.28;65.89
33414;BME280;60055;41.884;12.534;2023-08-01T04:56:48;100357.84;;;27.34;66.18
33414;BME280;60055;41.884;12.534;2023-08-01T04:59:14;100358.84;;;27.41;65.59
33414;BME280;60055;41.884;12.534;2023-08-01T05:01:39;100362.41;;;27.50;65.60
33414;BME280;60055;41.884;12.534;2023-08-01T05:04:05;100356.78;;;27.67;65.05
33414;BME280;60055;41.884;12.534;2023-08-01T05:06:30;100361.31;;;27.75;64.62
33414;BME280;60055;41.884;12.534;2023-08-01T05:08:56;100362.28;;;27.98;64.10
33414;BME280;60055;41.884;12.534;2023-08-01T05:11:21;100361.16;;;28.23;62.81
33414;BME280;60055;41.884;12.534;2023-08-01T05:13:48;100361.31;;;28.53;62.33
33414;BME280;60055;41.884;12.534;2023-08-01T05:16:14;100359.34;;;28.77;61.58
33414;BME280;60055;41.884;12.534;2023-08-01T05:18:39;100371.53;;;29.04;60.35
33414;BME280;60055;41.884;12.534;2023-08-01T05:21:04;100365.19;;;29.12;60.37
33414;BME280;60055;41.884;12.534;2023-08-01T05:23:30;100370.91;;;29.39;59.32
33414;BME280;60055;41.884;12.534;2023-08-01T05:25:55;100353.75;;;29.54;58.43
33414;BME280;60055;41.884;12.534;2023-08-01T05:28:21;100357.16;;;29.70;57.84
33414;BME280;60055;41.884;12.534;2023-08-01T05:30:46;100353.50;;;29.92;56.98
33414;BME280;60055;41.884;12.534;2023-08-01T05:33:12;100362.44;;;30.01;56.81
33414;BME280;60055;41.884;12.534;2023-08-01T05:35:37;100361.44;;;30.23;56.13
33414;BME280;60055;41.884;12.534;2023-08-01T05:38:03;100360.81;;;30.21;56.24
33414;BME280;60055;41.884;12.534;2023-08-01T05:40:28;100366.97;;;30.45;55.08
33414;BME280;60055;41.884;12.534;2023-08-01T05:42:54;100358.50;;;30.54;55.22
33414;BME280;60055;41.884;12.534;2023-08-01T05:45:19;100362.72;;;30.78;54.30
33414;BME280;60055;41.884;12.534;2023-08-01T05:47:44;100362.28;;;30.96;53.64
33414;BME280;60055;41.884;12.534;2023-08-01T05:50:10;100359.38;;;30.97;53.74
33414;BME280;60055;41.884;12.534;2023-08-01T05:52:36;100360.09;;;31.06;53.39
33414;BME280;60055;41.884;12.534;2023-08-01T05:55:01;100358.63;;;31.10;52.69
33414;BME280;60055;41.884;12.534;2023-08-01T05:57:27;100363.66;;;31.34;52.31
33414;BME280;60055;41.884;12.534;2023-08-01T05:59:52;100365.41;;;31.63;52.16
33414;BME280;60055;41.884;12.534;2023-08-01T06:02:18;100360.19;;;31.74;51.13
33414;BME280;60055;41.884;12.534;2023-08-01T06:04:44;100359.94;;;31.97;50.78
33414;BME280;60055;41.884;12.534;2023-08-01T06:07:09;100364.84;;;32.15;49.79
33414;BME280;60055;41.884;12.534;2023-08-01T06:09:35;100361.69;;;32.11;49.65
33414;BME280;60055;41.884;12.534;2023-08-01T06:12:00;100361.59;;;31.64;50.93
33414;BME280;60055;41.884;12.534;2023-08-01T06:14:26;100371.81;;;32.17;49.43
33414;BME280;60055;41.884;12.534;2023-08-01T06:16:51;100367.31;;;32.51;48.49
33414;BME280;60055;41.884;12.534;2023-08-01T06:19:16;100362.69;;;32.45;47.98
33414;BME280;60055;41.884;12.534;2023-08-01T06:21:42;100362.78;;;32.71;48.14
33414;BME280;60055;41.884;12.534;2023-08-01T06:24:08;100357.22;;;32.51;48.39
33414;BME280;60055;41.884;12.534;2023-08-01T06:26:34;100372.69;;;32.85;48.09
33414;BME280;60055;41.884;12.534;2023-08-01T06:28:59;100371.16;;;32.63;47.87
33414;BME280;60055;41.884;12.534;2023-08-01T06:31:24;100358.59;;;32.75;47.25
33414;BME280;60055;41.884;12.534;2023-08-01T06:33:50;100367.47;;;33.16;46.27
33414;BME280;60055;41.884;12.534;2023-08-01T06:36:15;100357.38;;;33.17;46.08
33414;BME280;60055;41.884;12.534;2023-08-01T06:38:42;100352.31;;;33.33;45.26
33414;BME280;60055;41.884;12.534;2023-08-01T06:41:07;100354.41;;;33.45;45.13
33414;BME280;60055;41.884;12.534;2023-08-01T06:43:33;100360.31;;;33.42;45.44
33414;BME280;60055;41.884;12.534;2023-08-01T06:45:58;100356.47;;;32.77;46.53
33414;BME280;60055;41.884;12.534;2023-08-01T06:48:24;100366.66;;;33.29;45.58
33414;BME280;60055;41.884;12.534;2023-08-01T06:50:49;100361.09;;;32.83;46.33
33414;BME280;60055;41.884;12.534;2023-08-01T06:53:14;100367.88;;;33.33;45.23
33414;BME280;60055;41.884;12.534;2023-08-01T06:55:40;100368.94;;;33.65;44.95
33414;BME280;60055;41.884;12.534;2023-08-01T06:58:06;100375.88;;;33.54;44.98
33414;BME280;60055;41.884;12.534;2023-08-01T07:00:31;100371.16;;;34.01;43.20
33414;BME280;60055;41.884;12.534;2023-08-01T07:02:59;100367.31;;;34.21;43.01
33414;BME280;60055;41.884;12.534;2023-08-01T07:05:25;100363.66;;;33.70;43.80
33414;BME280;60055;41.884;12.534;2023-08-01T07:07:50;100364.75;;;33.62;44.37
33414;BME280;60055;41.884;12.534;2023-08-01T07:10:16;100357.06;;;33.97;43.21
33414;BME280;60055;41.884;12.534;2023-08-01T07:12:41;100354.69;;;34.20;42.43
33414;BME280;60055;41.884;12.534;2023-08-01T07:15:07;100354.56;;;34.47;41.88
33414;BME280;60055;41.884;12.534;2023-08-01T07:17:33;100349.19;;;34.65;41.85
33414;BME280;60055;41.884;12.534;2023-08-01T07:19:58;100347.94;;;34.23;41.67
33414;BME280;60055;41.884;12.534;2023-08-01T07:22:24;100342.47;;;34.23;42.30
33414;BME280;60055;41.884;12.534;2023-08-01T07:24:53;100343.34;;;33.97;41.80
33414;BME280;60055;41.884;12.534;2023-08-01T07:27:19;100339.00;;;34.34;40.50
33414;BME280;60055;41.884;12.534;2023-08-01T07:29:44;100349.25;;;34.52;40.31
33414;BME280;60055;41.884;12.534;2023-08-01T07:32:10;100348.94;;;34.28;40.68
33414;BME280;60055;41.884;12.534;2023-08-01T07:34:35;100340.31;;;34.69;39.78
33414;BME280;60055;41.884;12.534;2023-08-01T07:37:01;100343.97;;;34.88;39.18
33414;BME280;60055;41.884;12.534;2023-08-01T07:39:26;100335.28;;;35.22;38.36
33414;BME280;60055;41.884;12.534;2023-08-01T07:41:51;100333.22;;;35.18;38.28
33414;BME280;60055;41.884;12.534;2023-08-01T07:44:17;100331.28;;;34.11;38.77
33414;BME280;60055;41.884;12.534;2023-08-01T07:46:42;100327.06;;;34.22;39.29
33414;BME280;60055;41.884;12.534;2023-08-01T07:49:08;100317.13;;;34.59;38.53
33414;BME280;60055;41.884;12.534;2023-08-01T07:51:33;100319.13;;;34.45;38.91
33414;BME280;60055;41.884;12.534;2023-08-01T07:53:59;100324.28;;;34.98;38.17
33414;BME280;60055;41.884;12.534;2023-08-01T07:56:25;100325.69;;;34.37;38.91
33414;BME280;60055;41.884;12.534;2023-08-01T07:58:50;100320.78;;;34.53;39.49
33414;BME280;60055;41.884;12.534;2023-08-01T08:01:16;100321.75;;;34.96;38.09
33414;BME280;60055;41.884;12.534;2023-08-01T08:03:41;100319.72;;;34.85;38.72
33414;BME280;60055;41.884;12.534;2023-08-01T08:06:06;100327.63;;;35.49;37.82
33414;BME280;60055;41.884;12.534;2023-08-01T08:08:32;100317.88;;;34.79;37.57
33414;BME280;60055;41.884;12.534;2023-08-01T08:11:02;100314.72;;;35.31;37.10
33414;BME280;60055;41.884;12.534;2023-08-01T08:13:28;100309.47;;;34.74;38.37
33414;BME280;60055;41.884;12.534;2023-08-01T08:15:56;100305.91;;;34.98;38.36
33414;BME280;60055;41.884;12.534;2023-08-01T08:18:22;100293.34;;;35.09;37.79
33414;BME280;60055;41.884;12.534;2023-08-01T08:20:48;100298.44;;;35.55;37.07
33414;BME280;60055;41.884;12.534;2023-08-01T08:23:13;100299.88;;;35.57;37.03
33414;BME280;60055;41.884;12.534;2023-08-01T08:25:40;100301.53;;;35.65;36.49
33414;BME280;60055;41.884;12.534;2023-08-01T08:28:05;100305.81;;;35.79;35.58
33414;BME280;60055;41.884;12.534;2023-08-01T08:30:30;100301.50;;;36.01;34.72
33414;BME280;60055;41.884;12.534;2023-08-01T08:32:57;100300.06;;;35.99;34.60
33414;BME280;60055;41.884;12.534;2023-08-01T08:35:23;100300.34;;;35.54;34.63
33414;BME280;60055;41.884;12.534;2023-08-01T08:37:49;100304.06;;;35.42;34.90
33414;BME280;60055;41.884;12.534;2023-08-01T08:40:14;100308.19;;;35.51;34.34
33414;BME280;60055;41.884;12.534;2023-08-01T08:42:40;100300.38;;;35.72;33.93
33414;BME280;60055;41.884;12.534;2023-08-01T08:45:06;100300.53;;;35.77;33.38
33414;BME280;60055;41.884;12.534;2023-08-01T08:47:36;100295.78;;;35.66;32.59
33414;BME280;60055;41.884;12.534;2023-08-01T08:50:02;100300.53;;;35.34;33.09
33414;BME280;60055;41.884;12.534;2023-08-01T08:52:27;100304.03;;;34.92;33.98
33414;BME280;60055;41.884;12.534;2023-08-01T08:54:53;100281.00;;;35.24;33.44
33414;BME280;60055;41.884;12.534;2023-08-01T08:57:20;100271.69;;;35.25;33.26
33414;BME280;60055;41.884;12.534;2023-08-01T08:59:46;100269.88;;;35.37;33.04
33414;BME280;60055;41.884;12.534;2023-08-01T09:02:14;100277.06;;;35.38;32.40
33414;BME280;60055;41.884;12.534;2023-08-01T09:04:40;100267.28;;;35.43;32.52
33414;BME280;60055;41.884;12.534;2023-08-01T09:07:10;100269.81;;;35.44;32.67
33414;BME280;60055;41.884;12.534;2023-08-01T09:09:37;100270.78;;;35.50;32.93
33414;BME280;60055;41.884;12.534;2023-08-01T09:12:03;100269.72;;;35.51;32.46
33414;BME280;60055;41.884;12.534;2023-08-01T09:14:28;100265.41;;;34.69;33.39
33414;BME280;60055;41.884;12.534;2023-08-01T09:17:04;100285.28;;;34.26;34.12
33414;BME280;60055;41.884;12.534;2023-08-01T09:19:30;100280.44;;;34.22;33.41
33414;BME280;60055;41.884;12.534;2023-08-01T09:21:55;100269.81;;;34.38;33.80
33414;BME280;60055;41.884;12.534;2023-08-01T09:24:21;100282.28;;;34.34;33.53
33414;BME280;60055;41.884;12.534;2023-08-01T09:26:48;100273.69;;;34.62;32.85
33414;BME280;60055;41.884;12.534;2023-08-01T09:29:16;100273.88;;;34.61;32.82
33414;BME280;60055;41.884;12.534;2023-08-01T09:31:42;100266.44;;;34.74;32.32
33414;BME280;60055;41.884;12.534;2023-08-01T09:34:24;100270.59;;;34.46;32.68
33414;BME280;60055;41.884;12.534;2023-08-01T09:36:50;100267.00;;;34.20;33.90
33414;BME280;60055;41.884;12.534;2023-08-01T09:39:21;100265.06;;;34.52;33.74
33414;BME280;60055;41.884;12.534;2023-08-01T09:41:55;100263.97;;;34.28;33.38
33414;BME280;60055;41.884;12.534;2023-08-01T09:44:21;100263.06;;;34.34;33.12
33414;BME280;60055;41.884;12.534;2023-08-01T09:49:21;100260.81;;;34.63;33.55
33414;BME280;60055;41.884;12.534;2023-08-01T09:51:48;100265.84;;;34.66;33.55
33414;BME280;60055;41.884;12.534;2023-08-01T09:54:17;100263.91;;;34.73;33.80
33414;BME280;60055;41.884;12.534;2023-08-01T09:56:47;100260.09;;;34.74;33.57
33414;BME280;60055;41.884;12.534;2023-08-01T09:59:19;100271.22;;;34.16;34.10
33414;BME280;60055;41.884;12.534;2023-08-01T10:01:47;100261.50;;;34.52;33.89
33414;BME280;60055;41.884;12.534;2023-08-01T10:04:13;100260.25;;;34.48;33.67
33414;BME280;60055;41.884;12.534;2023-08-01T10:06:42;100252.88;;;34.48;33.12
33414;BME280;60055;41.884;12.534;2023-08-01T10:09:10;100244.34;;;34.31;32.71
33414;BME280;60055;41.884;12.534;2023-08-01T10:11:36;100229.91;;;34.43;32.92
33414;BME280;60055;41.884;12.534;2023-08-01T10:14:04;100223.16;;;34.45;32.28
33414;BME280;60055;41.884;12.534;2023-08-01T10:16:31;100225.59;;;34.28;32.42
33414;BME280;60055;41.884;12.534;2023-08-01T10:18:59;100228.56;;;34.27;32.47
33414;BME280;60055;41.884;12.534;2023-08-01T10:21:25;100223.38;;;34.06;32.32
33414;BME280;60055;41.884;12.534;2023-08-01T10:23:53;100234.69;;;34.22;32.55
33414;BME280;60055;41.884;12.534;2023-08-01T10:26:20;100230.50;;;33.75;34.96
33414;BME280;60055;41.884;12.534;2023-08-01T10:28:52;100232.28;;;33.95;34.86
33414;BME280;60055;41.884;12.534;2023-08-01T10:31:19;100224.09;;;33.30;37.62
33414;BME280;60055;41.884;12.534;2023-08-01T10:33:47;100226.31;;;33.73;37.05
33414;BME280;60055;41.884;12.534;2023-08-01T10:36:16;100223.53;;;33.79;37.07
33414;BME280;60055;41.884;12.534;2023-08-01T10:41:30;100222.41;;;33.23;39.21
33414;BME280;60055;41.884;12.534;2023-08-01T10:49:16;100202.31;;;33.62;39.25
33414;BME280;60055;41.884;12.534;2023-08-01T10:51:43;100200.44;;;33.62;39.06
33414;BME280;60055;41.884;12.534;2023-08-01T10:54:21;100201.91;;;33.52;39.52
33414;BME280;60055;41.884;12.534;2023-08-01T10:56:49;100188.72;;;33.29;40.15
33414;BME280;60055;41.884;12.534;2023-08-01T10:59:15;100194.34;;;33.47;39.83
33414;BME280;60055;41.884;12.534;2023-08-01T11:01:51;100189.28;;;33.51;39.39
33414;BME280;60055;41.884;12.534;2023-08-01T11:04:18;100200.59;;;33.61;38.75
33414;BME280;60055;41.884;12.534;2023-08-01T11:06:47;100197.25;;;33.59;38.41
33414;BME280;60055;41.884;12.534;2023-08-01T11:09:21;100193.97;;;33.30;39.53
33414;BME280;60055;41.884;12.534;2023-08-01T11:11:48;100191.41;;;33.42;39.68
33414;BME280;60055;41.884;12.534;2023-08-01T11:14:14;100188.41;;;33.57;39.63
33414;BME280;60055;41.884;12.534;2023-08-01T11:16:40;100201.53;;;33.42;39.87
33414;BME280;60055;41.884;12.534;2023-08-01T11:19:20;100201.09;;;33.45;39.34
33414;BME280;60055;41.884;12.534;2023-08-01T11:21:46;100197.72;;;33.36;39.81
33414;BME280;60055;41.884;12.534;2023-08-01T11:24:12;100202.00;;;33.25;39.78
33414;BME280;60055;41.884;12.534;2023-08-01T11:26:42;100196.72;;;33.30;39.69
33414;BME280;60055;41.884;12.534;2023-08-01T11:29:08;100193.56;;;33.27;39.43
33414;BME280;60055;41.884;12.534;2023-08-01T11:31:34;100189.59;;;33.16;39.79
33414;BME280;60055;41.884;12.534;2023-08-01T11:33:59;100193.59;;;33.20;39.53
33414;BME280;60055;41.884;12.534;2023-08-01T11:36:26;100184.31;;;33.21;39.07
33414;BME280;60055;41.884;12.534;2023-08-01T11:38:52;100177.56;;;33.24;38.94
33414;BME280;60055;41.884;12.534;2023-08-01T11:41:18;100187.28;;;33.13;39.54
33414;BME280;60055;41.884;12.534;2023-08-01T11:43:43;100186.84;;;33.23;39.17
33414;BME280;60055;41.884;12.534;2023-08-01T11:46:09;100187.47;;;33.25;39.65
33414;BME280;60055;41.884;12.534;2023-08-01T11:48:35;100185.25;;;33.53;38.97
33414;BME280;60055;41.884;12.534;2023-08-01T11:51:01;100187.19;;;33.39;39.74
33414;BME280;60055;41.884;12.534;2023-08-01T11:53:28;100186.31;;;33.59;38.20
33414;BME280;60055;41.884;12.534;2023-08-01T11:55:54;100202.94;;;33.64;38.36
33414;BME280;60055;41.884;12.534;2023-08-01T11:58:36;100199.00;;;33.33;38.91
33414;BME280;60055;41.884;12.534;2023-08-01T12:01:06;100201.78;;;33.27;38.58
33414;BME280;60055;41.884;12.534;2023-08-01T12:03:32;100195.72;;;33.12;39.14
33414;BME280;60055;41.884;12.534;2023-08-01T12:06:07;100204.97;;;33.17;38.86
33414;BME280;60055;41.884;12.534;2023-08-01T12:08:33;100196.53;;;33.25;38.77
33414;BME280;60055;41.884;12.534;2023-08-01T12:10:59;100196.13;;;32.96;39.59
33414;BME280;60055;41.884;12.534;2023-08-01T12:13:25;100180.56;;;32.83;40.15
33414;BME280;60055;41.884;12.534;2023-08-01T12:15:52;100177.41;;;32.92;39.84
33414;BME280;60055;41.884;12.534;2023-08-01T12:18:28;100171.28;;;33.10;39.68
33414;BME280;60055;41.884;12.534;2023-08-01T12:20:54;100175.28;;;33.01;38.93
33414;BME280;60055;41.884;12.534;2023-08-01T12:23:20;100184.75;;;33.05;39.42
33414;BME280;60055;41.884;12.534;2023-08-01T12:25:48;100184.97;;;33.10;38.93
33414;BME280;60055;41.884;12.534;2023-08-01T12:28:14;100180.59;;;32.76;40.00
33414;BME280;60055;41.884;12.534;2023-08-01T12:30:40;100182.03;;;33.05;39.30
33414;BME280;60055;41.884;12.534;2023-08-01T12:33:07;100169.81;;;33.14;38.96
33414;BME280;60055;41.884;12.534;2023-08-01T12:35:32;100180.34;;;33.11;38.55
33414;BME280;60055;41.884;12.534;2023-08-01T12:37:58;100174.66;;;32.99;39.38
33414;BME280;60055;41.884;12.534;2023-08-01T12:40:23;100175.75;;;32.85;39.40
33414;BME280;60055;41.884;12.534;2023-08-01T12:42:49;100182.88;;;32.86;39.36
33414;BME280;60055;41.884;12.534;2023-08-01T12:45:14;100171.50;;;32.96;39.36